Time;durP1;ratioP1;P1;durP2;ratioP2;P2;SDS_P1;SDS_P2;PMS_P1;PMS_P2;Temp;Humidity;BMP_temperature;BMP_pressure;BME280_temperature;BME280_humidity;BME280_pressure;Samples;Min_cycle;Max_cycle;Signal;HPM_P1;HPM_P2
2023/02/24 00:01:51;;;;;;;9.77;6.97;;;9.20;99.90;;;;;;5023266;28;20188;-70
2023/02/24 00:04:19;;;;;;;8.63;7.07;;;9.20;99.90;;;;;;5018717;28;20184;-69
2023/02/24 00:06:46;;;;;;;7.90;6.63;;;9.30;99.90;;;;;;5019344;28;20191;-69
2023/02/24 00:09:21;;;;;;;10.30;6.77;;;9.30;99.90;;;;;;5017807;28;20215;-69
2023/02/24 00:12:07;;;;;;;7.87;6.70;;;9.40;99.90;;;;;;5017416;28;20198;-69
2023/02/24 00:14:38;;;;;;;7.53;6.60;;;9.50;99.90;;;;;;5016507;28;20614;-70
2023/02/24 00:17:08;;;;;;;8.90;8.03;;;9.50;99.90;;;;;;5018385;28;20196;-69
2023/02/24 00:19:36;;;;;;;10.93;8.67;;;9.60;99.90;;;;;;5000821;28;20736;-69
2023/02/24 00:22:06;;;;;;;11.70;8.20;;;9.60;99.90;;;;;;4986731;28;20555;-69
2023/02/24 00:24:34;;;;;;;9.67;7.33;;;9.60;99.90;;;;;;5016751;28;20203;-69
2023/02/24 00:27:06;;;;;;;8.57;7.67;;;9.60;99.90;;;;;;5021106;28;20199;-69
2023/02/24 00:29:36;;;;;;;10.67;7.40;;;9.60;99.90;;;;;;5022584;28;20192;-70
2023/02/24 00:32:05;;;;;;;7.83;6.97;;;9.60;99.90;;;;;;5006562;28;20299;-70
2023/02/24 00:34:35;;;;;;;8.53;7.40;;;9.60;99.90;;;;;;5007392;28;20204;-70
2023/02/24 00:37:05;;;;;;;9.53;7.93;;;9.60;99.90;;;;;;5005198;28;20193;-69
2023/02/24 00:39:33;;;;;;;9.47;7.03;;;9.50;99.90;;;;;;5023664;28;20195;-69
2023/02/24 00:42:03;;;;;;;9.20;7.07;;;9.50;99.90;;;;;;5023848;28;20223;-70
2023/02/24 00:44:36;;;;;;;12.00;6.80;;;9.40;99.90;;;;;;5007063;28;20184;-70
2023/02/24 00:47:06;;;;;;;11.13;6.83;;;9.40;99.90;;;;;;5024325;28;20689;-69
2023/02/24 00:49:40;;;;;;;8.63;6.67;;;9.40;99.90;;;;;;5006823;28;20220;-70
2023/02/24 00:52:14;;;;;;;8.60;6.63;;;9.30;99.90;;;;;;5024500;28;21718;-69
2023/02/24 00:54:46;;;;;;;9.63;6.80;;;9.30;99.90;;;;;;5020653;28;20224;-70
2023/02/24 00:57:16;;;;;;;7.77;6.43;;;9.20;99.90;;;;;;5016420;28;20230;-69
2023/02/24 00:59:46;;;;;;;9.13;7.00;;;9.20;99.90;;;;;;5008510;28;20195;-70
2023/02/24 01:02:14;;;;;;;8.87;6.47;;;9.20;99.90;;;;;;5023581;28;21267;-73
2023/02/24 01:04:40;;;;;;;9.40;6.93;;;9.20;99.90;;;;;;5024689;28;20266;-73
2023/02/24 01:07:09;;;;;;;9.07;7.00;;;9.20;99.90;;;;;;5022379;28;20306;-72
2023/02/24 01:09:39;;;;;;;7.60;6.90;;;9.20;99.90;;;;;;5018758;28;20203;-72
2023/02/24 01:14:51;;;;;;;8.80;6.80;;;9.20;99.90;;;;;;5020869;28;20218;-72
2023/02/24 01:17:19;;;;;;;7.63;6.47;;;9.10;99.90;;;;;;5004090;28;20192;-72
2023/02/24 01:19:48;;;;;;;7.53;6.80;;;9.10;99.90;;;;;;5005034;28;20279;-72
2023/02/24 01:22:17;;;;;;;9.63;6.57;;;9.10;99.90;;;;;;5022887;28;20191;-72
2023/02/24 01:24:44;;;;;;;7.70;6.43;;;9.10;99.90;;;;;;5005651;28;20228;-72
2023/02/24 01:27:17;;;;;;;6.97;6.27;;;9.00;99.90;;;;;;5022780;28;20200;-72
2023/02/24 01:29:45;;;;;;;9.30;6.83;;;9.00;99.90;;;;;;5024264;28;20653;-73
2023/02/24 01:32:20;;;;;;;7.53;6.73;;;9.00;99.90;;;;;;5022841;28;20673;-72
2023/02/24 01:34:49;;;;;;;9.33;7.00;;;9.00;99.90;;;;;;5022813;28;20215;-72
2023/02/24 01:37:18;;;;;;;9.73;6.77;;;9.00;99.90;;;;;;5004992;28;20192;-72
2023/02/24 01:39:45;;;;;;;9.53;6.87;;;8.90;99.90;;;;;;5021865;28;20954;-73
2023/02/24 01:42:15;;;;;;;8.37;6.80;;;8.90;99.90;;;;;;5004916;28;20199;-72
2023/02/24 01:44:42;;;;;;;9.03;7.00;;;8.90;99.90;;;;;;5022134;28;20280;-73
2023/02/24 01:47:10;;;;;;;7.47;6.67;;;8.90;99.90;;;;;;5003503;28;20263;-72
2023/02/24 01:49:43;;;;;;;7.87;6.57;;;8.90;99.90;;;;;;5018947;28;20567;-72
2023/02/24 01:52:29;;;;;;;9.23;6.97;;;8.80;99.90;;;;;;5003868;28;20204;-72
2023/02/24 01:55:15;;;;;;;12.30;7.13;;;8.80;99.90;;;;;;5019531;28;20521;-73
2023/02/24 01:57:42;;;;;;;8.60;6.70;;;8.80;99.90;;;;;;5019656;28;20271;-73
2023/02/24 02:03:08;;;;;;;10.07;7.30;;;8.80;99.90;;;;;;5020634;28;20204;-73
2023/02/24 02:05:40;;;;;;;8.07;6.77;;;8.70;99.90;;;;;;5001806;28;20262;-72
2023/02/24 02:08:08;;;;;;;8.00;6.43;;;8.70;99.90;;;;;;5021153;28;20196;-72
2023/02/24 02:10:38;;;;;;;7.07;6.37;;;8.70;99.90;;;;;;5021114;28;20207;-72
2023/02/24 02:13:05;;;;;;;7.20;6.47;;;8.70;99.90;;;;;;5003855;28;20200;-73
2023/02/24 02:15:39;;;;;;;7.40;6.70;;;8.80;99.90;;;;;;5020439;28;20731;-72
2023/02/24 02:18:37;;;;;;;8.10;6.50;;;8.70;99.90;;;;;;5021650;28;20723;-73
2023/02/24 02:22:09;;;;;;;9.53;6.97;;;8.70;99.90;;;;;;4984877;28;20426;-72
2023/02/24 02:25:08;;;;;;;8.90;6.40;;;8.60;99.90;;;;;;5007924;28;20246;-73
2023/02/24 02:28:20;;;;;;;7.50;6.70;;;8.60;99.90;;;;;;5005521;28;20207;-72
2023/02/24 02:31:30;;;;;;;9.60;7.07;;;8.60;99.90;;;;;;5020145;28;20691;-72
2023/02/24 02:34:08;;;;;;;11.40;7.00;;;8.70;99.90;;;;;;5003026;28;20184;-72
2023/02/24 02:37:24;;;;;;;7.53;6.50;;;8.70;99.90;;;;;;5019677;28;20223;-73
2023/02/24 02:40:17;;;;;;;7.70;6.70;;;8.70;99.90;;;;;;4958843;28;20194;-72
2023/02/24 02:43:05;;;;;;;8.80;7.17;;;8.70;99.90;;;;;;4961774;28;20192;-72
2023/02/24 02:46:02;;;;;;;8.53;7.07;;;8.60;99.90;;;;;;5002777;28;20204;-73
2023/02/24 02:48:58;;;;;;;9.37;7.30;;;8.70;99.90;;;;;;5012735;28;20173;-73
2023/02/24 02:51:37;;;;;;;8.03;6.93;;;8.60;99.90;;;;;;4996180;28;20279;-72
2023/02/24 02:55:09;;;;;;;13.20;7.47;;;8.60;99.90;;;;;;4990919;28;20200;-72
2023/02/24 02:57:40;;;;;;;8.67;7.07;;;8.60;99.90;;;;;;4989960;28;20204;-72
2023/02/24 03:00:20;;;;;;;9.17;7.43;;;8.60;99.90;;;;;;5014150;28;20566;-72
2023/02/24 03:02:54;;;;;;;8.77;7.53;;;8.60;99.90;;;;;;5021780;28;20574;-72
2023/02/24 03:05:33;;;;;;;9.67;7.50;;;8.60;99.90;;;;;;5014712;28;20269;-72
2023/02/24 03:08:04;;;;;;;11.13;7.63;;;8.60;99.90;;;;;;4998935;28;20639;-72
2023/02/24 03:10:33;;;;;;;9.07;7.70;;;8.70;99.90;;;;;;5023299;28;20665;-72
2023/02/24 03:13:05;;;;;;;11.13;7.90;;;8.70;99.90;;;;;;4996482;28;20201;-72
2023/02/24 03:15:32;;;;;;;9.40;7.93;;;8.70;99.90;;;;;;4982941;28;20207;-72
2023/02/24 03:18:11;;;;;;;9.27;7.60;;;8.70;99.90;;;;;;5020049;28;20227;-72
2023/02/24 03:20:58;;;;;;;8.47;7.57;;;8.70;99.90;;;;;;5020496;28;20542;-73
2023/02/24 03:23:30;;;;;;;9.50;8.13;;;8.70;99.90;;;;;;5018155;28;20184;-72
2023/02/24 03:26:55;;;;;;;10.70;9.10;;;8.70;99.90;;;;;;5021475;28;20196;-72
2023/02/24 03:29:47;;;;;;;10.97;8.93;;;8.70;99.90;;;;;;5000714;28;20613;-73
2023/02/24 03:32:32;;;;;;;12.03;9.00;;;8.70;99.90;;;;;;5022659;28;20264;-73
2023/02/24 03:35:12;;;;;;;11.83;9.53;;;8.70;99.90;;;;;;5019653;28;20208;-72
2023/02/24 03:37:38;;;;;;;13.07;10.27;;;8.70;99.90;;;;;;5001668;28;20195;-72
2023/02/24 03:40:13;;;;;;;16.93;10.27;;;8.70;99.90;;;;;;5019475;28;20602;-72
2023/02/24 03:43:03;;;;;;;12.57;10.17;;;8.70;99.90;;;;;;5018233;28;20705;-72
2023/02/24 03:45:36;;;;;;;10.97;9.67;;;8.70;99.90;;;;;;5012491;28;20195;-72
2023/02/24 03:48:06;;;;;;;11.77;10.20;;;8.70;99.90;;;;;;5019521;28;20203;-72
2023/02/24 03:50:33;;;;;;;12.57;10.77;;;8.70;99.90;;;;;;5018259;28;20181;-73
2023/02/24 03:53:59;;;;;;;11.63;10.40;;;8.70;99.90;;;;;;5014895;28;20299;-72
2023/02/24 03:56:45;;;;;;;12.40;10.43;;;8.70;99.90;;;;;;5018090;28;20212;-73
2023/02/24 03:59:52;;;;;;;12.85;11.60;;;8.70;99.90;;;;;;5016950;28;20444;-72
2023/02/24 04:02:24;;;;;;;12.33;11.10;;;8.70;99.90;;;;;;5021283;28;20195;-72
2023/02/24 04:05:08;;;;;;;13.73;10.33;;;8.70;99.90;;;;;;5025854;28;20188;-73
2023/02/24 04:08:06;;;;;;;11.67;10.33;;;8.60;99.90;;;;;;5025116;28;20235;-72
2023/02/24 04:10:52;;;;;;;17.20;10.83;;;8.60;99.90;;;;;;5006845;28;20184;-72
2023/02/24 04:13:43;;;;;;;12.40;11.10;;;8.60;99.90;;;;;;5013311;28;20191;-72
2023/02/24 04:16:27;;;;;;;11.70;10.43;;;8.60;99.90;;;;;;5027025;28;20528;-73
2023/02/24 04:19:02;;;;;;;13.53;10.50;;;8.60;99.90;;;;;;5023785;28;20188;-72
2023/02/24 04:21:31;;;;;;;12.70;11.33;;;8.60;99.90;;;;;;5002593;28;20663;-72
2023/02/24 04:24:07;;;;;;;13.20;10.90;;;8.60;99.90;;;;;;5020829;28;20202;-73
2023/02/24 04:26:39;;;;;;;12.07;10.40;;;8.60;99.90;;;;;;5004647;28;20257;-72
2023/02/24 04:29:08;;;;;;;11.83;10.63;;;8.70;99.90;;;;;;5024457;28;20646;-72
2023/02/24 04:31:37;;;;;;;11.43;10.33;;;8.70;99.90;;;;;;5026851;28;20188;-73
2023/02/24 04:34:08;;;;;;;12.77;10.60;;;8.70;99.90;;;;;;5022396;28;20191;-72
2023/02/24 04:36:34;;;;;;;12.57;11.27;;;8.70;99.90;;;;;;5005687;28;20236;-73
2023/02/24 04:39:00;;;;;;;12.53;11.10;;;8.70;99.90;;;;;;5005827;28;20258;-72
2023/02/24 04:41:27;;;;;;;12.70;11.30;;;8.70;99.90;;;;;;5013701;28;20710;-72
2023/02/24 04:43:53;;;;;;;15.03;11.83;;;8.70;99.90;;;;;;4988021;28;20247;-72
2023/02/24 04:46:22;;;;;;;15.73;11.30;;;8.70;99.90;;;;;;5021466;28;20690;-72
2023/02/24 04:48:49;;;;;;;17.50;11.13;;;8.70;99.90;;;;;;5019093;28;20679;-72
2023/02/24 04:51:16;;;;;;;14.37;11.43;;;8.70;99.90;;;;;;5020369;28;20195;-72
2023/02/24 04:53:44;;;;;;;11.43;10.33;;;8.70;99.90;;;;;;4996769;28;20208;-72
2023/02/24 04:56:10;;;;;;;15.40;11.33;;;8.70;99.90;;;;;;4999780;28;20205;-72
2023/02/24 04:58:38;;;;;;;14.10;11.30;;;8.70;99.90;;;;;;5004447;28;20180;-72
2023/02/24 05:01:10;;;;;;;12.57;10.93;;;8.70;99.90;;;;;;5014444;28;20318;-73
2023/02/24 05:03:42;;;;;;;12.37;10.83;;;8.70;99.90;;;;;;5006499;28;20184;-72
2023/02/24 05:06:15;;;;;;;13.47;12.07;;;8.70;99.90;;;;;;5020950;28;20192;-73
2023/02/24 05:08:42;;;;;;;11.97;10.73;;;8.70;99.90;;;;;;4994074;28;20193;-72
2023/02/24 05:11:14;;;;;;;13.80;10.97;;;8.60;99.90;;;;;;5020404;28;20188;-72
2023/02/24 05:13:45;;;;;;;13.93;10.93;;;8.60;99.90;;;;;;5021369;28;20803;-72
2023/02/24 05:16:17;;;;;;;12.73;11.43;;;8.60;99.90;;;;;;5020875;28;20210;-72
2023/02/24 05:18:43;;;;;;;14.63;12.20;;;8.60;99.90;;;;;;5023552;28;20184;-72
2023/02/24 05:24:05;;;;;;;14.50;10.70;;;8.60;99.90;;;;;;5014562;28;20180;-72
2023/02/24 05:26:34;;;;;;;12.63;10.60;;;8.60;99.90;;;;;;4987914;28;20532;-72
2023/02/24 05:29:02;;;;;;;13.17;11.53;;;8.60;99.90;;;;;;5004675;28;20192;-72
2023/02/24 05:31:31;;;;;;;13.70;12.30;;;8.70;99.90;;;;;;5004671;28;20196;-73
2023/02/24 05:34:01;;;;;;;13.77;11.30;;;8.70;99.90;;;;;;5013873;28;20196;-72
2023/02/24 05:36:39;;;;;;;14.00;11.73;;;8.80;99.90;;;;;;4998552;28;20211;-72
2023/02/24 05:39:11;;;;;;;13.00;11.50;;;8.80;99.90;;;;;;4989022;28;20342;-72
2023/02/24 05:41:41;;;;;;;13.33;11.87;;;8.90;99.90;;;;;;5023415;28;20183;-72
2023/02/24 05:44:30;;;;;;;17.23;12.43;;;9.00;99.90;;;;;;5012658;28;20743;-72
2023/02/24 05:46:57;;;;;;;15.23;13.17;;;9.10;99.90;;;;;;5004032;28;20782;-72
2023/02/24 05:49:32;;;;;;;14.20;12.70;;;9.20;99.90;;;;;;5004653;28;20188;-72
2023/02/24 05:52:06;;;;;;;15.33;12.20;;;9.20;99.90;;;;;;4998968;28;20195;-72
2023/02/24 05:54:40;;;;;;;14.57;11.80;;;9.30;99.90;;;;;;5017595;28;20195;-72
2023/02/24 05:57:23;;;;;;;13.60;11.80;;;9.40;99.90;;;;;;5019021;28;20222;-72
2023/02/24 05:59:50;;;;;;;13.43;12.07;;;9.40;99.90;;;;;;4942461;28;1757227;-72
2023/02/24 06:02:26;;;;;;;15.57;12.60;;;9.50;99.90;;;;;;5024427;28;20222;-72
2023/02/24 06:04:54;;;;;;;14.50;12.27;;;9.50;99.90;;;;;;5023115;28;20215;-72
2023/02/24 06:07:27;;;;;;;12.83;11.60;;;9.60;99.90;;;;;;4991418;28;20685;-72
2023/02/24 06:09:58;;;;;;;13.20;11.73;;;9.50;99.90;;;;;;5005531;28;20191;-73
2023/02/24 06:12:34;;;;;;;12.93;10.77;;;9.30;99.90;;;;;;5027046;28;20242;-72
2023/02/24 06:15:06;;;;;;;12.33;10.20;;;9.20;99.90;;;;;;5000482;28;20204;-72
2023/02/24 06:17:32;;;;;;;14.13;10.33;;;9.10;99.90;;;;;;5022752;28;20237;-72
2023/02/24 06:19:59;;;;;;;12.80;10.30;;;9.10;99.90;;;;;;5021715;28;20299;-73
2023/02/24 06:22:26;;;;;;;11.70;9.83;;;9.10;99.90;;;;;;5023552;28;20547;-72
2023/02/24 06:24:55;;;;;;;15.37;10.87;;;9.20;99.90;;;;;;5020310;28;20555;-72
2023/02/24 06:27:23;;;;;;;13.10;11.80;;;9.30;99.90;;;;;;4986268;28;20196;-72
2023/02/24 06:29:52;;;;;;;14.73;11.30;;;9.40;99.90;;;;;;5018240;28;20639;-72
2023/02/24 06:32:22;;;;;;;13.53;11.70;;;9.60;99.90;;;;;;5020975;28;20195;-72
2023/02/24 06:34:50;;;;;;;13.63;11.40;;;9.60;99.90;;;;;;5023970;28;20697;-73
2023/02/24 06:37:17;;;;;;;13.37;11.37;;;9.70;99.90;;;;;;5014602;28;20249;-72
2023/02/24 06:39:43;;;;;;;12.93;11.50;;;9.70;99.90;;;;;;5023360;28;20679;-73
2023/02/24 06:42:11;;;;;;;15.33;12.20;;;9.60;99.90;;;;;;5022510;28;20274;-72
2023/02/24 06:44:40;;;;;;;14.43;12.07;;;9.60;99.90;;;;;;5022843;28;20185;-72
2023/02/24 06:47:10;;;;;;;13.97;11.90;;;9.70;99.90;;;;;;5011444;28;20964;-73
2023/02/24 06:49:36;;;;;;;14.13;11.83;;;9.70;99.90;;;;;;5027978;28;20195;-72
2023/02/24 06:52:03;;;;;;;18.23;12.10;;;9.80;99.90;;;;;;5014671;28;20798;-72
2023/02/24 06:54:29;;;;;;;14.13;12.13;;;10.00;99.90;;;;;;5021229;28;20200;-72
2023/02/24 06:56:58;;;;;;;18.13;12.63;;;10.10;99.90;;;;;;5011351;28;20226;-72
2023/02/24 06:59:27;;;;;;;16.30;12.53;;;10.40;99.90;;;;;;5007830;28;20208;-72
2023/02/24 07:02:00;;;;;;;17.30;12.23;;;10.50;99.90;;;;;;5020808;28;20196;-72
2023/02/24 07:04:26;;;;;;;15.13;12.40;;;10.50;99.90;;;;;;5021863;28;20703;-72
2023/02/24 07:06:56;;;;;;;14.57;11.70;;;10.60;99.90;;;;;;5012829;28;20228;-72
2023/02/24 07:09:25;;;;;;;12.83;11.13;;;10.60;99.90;;;;;;5016463;28;20185;-72
2023/02/24 07:11:55;;;;;;;13.20;11.57;;;10.60;99.90;;;;;;5000145;28;20184;-72
2023/02/24 07:14:29;;;;;;;13.90;11.23;;;10.70;99.90;;;;;;4996595;28;20822;-72
2023/02/24 07:16:57;;;;;;;16.93;11.90;;;11.00;99.90;;;;;;5015021;28;20187;-73
2023/02/24 07:19:31;;;;;;;16.53;11.33;;;11.00;99.90;;;;;;5004085;28;20184;-72
2023/02/24 07:22:02;;;;;;;15.10;11.47;;;11.10;99.90;;;;;;5019925;28;20182;-72
2023/02/24 07:24:37;;;;;;;14.43;12.07;;;11.30;99.90;;;;;;5017137;28;20292;-72
2023/02/24 07:27:20;;;;;;;15.23;11.83;;;11.20;99.90;;;;;;4985929;28;20725;-73
2023/02/24 07:29:49;;;;;;;12.90;11.00;;;11.30;99.90;;;;;;5000137;28;20257;-72
2023/02/24 07:32:16;;;;;;;14.63;11.70;;;11.30;99.90;;;;;;5019576;28;20594;-72
2023/02/24 07:34:43;;;;;;;13.13;11.10;;;11.30;99.90;;;;;;5005896;28;20189;-72
2023/02/24 07:37:11;;;;;;;11.57;10.37;;;11.30;99.90;;;;;;5015402;28;20180;-72
2023/02/24 07:39:39;;;;;;;12.30;11.00;;;11.20;99.90;;;;;;5021665;28;20180;-73
2023/02/24 07:42:07;;;;;;;13.97;11.00;;;11.30;99.90;;;;;;5012203;28;20574;-72
2023/02/24 07:44:33;;;;;;;14.87;11.47;;;11.40;99.90;;;;;;5003129;28;20184;-73
2023/02/24 07:47:06;;;;;;;11.63;10.17;;;11.30;99.90;;;;;;5017952;28;20192;-72
2023/02/24 07:49:33;;;;;;;14.37;10.87;;;11.50;99.90;;;;;;5012859;28;21017;-72
2023/02/24 07:52:00;;;;;;;13.00;11.13;;;11.70;99.90;;;;;;5006301;28;20181;-72
2023/02/24 07:54:28;;;;;;;13.77;10.07;;;11.80;99.90;;;;;;5014696;28;20192;-72
2023/02/24 07:56:57;;;;;;;13.37;9.80;;;11.80;99.90;;;;;;5001763;28;20199;-72
2023/02/24 07:59:37;;;;;;;10.95;9.27;;;11.50;99.90;;;;;;4995341;28;20935;-72
2023/02/24 08:02:06;;;;;;;11.57;9.20;;;11.40;99.90;;;;;;5015005;28;20926;-72
2023/02/24 08:04:35;;;;;;;10.63;9.10;;;11.50;99.90;;;;;;4996741;28;20215;-73
2023/02/24 08:07:03;;;;;;;11.37;9.40;;;11.40;99.90;;;;;;4993462;28;20564;-72
2023/02/24 08:12:20;;;;;;;10.43;9.43;;;11.80;99.90;;;;;;5019533;28;20253;-72
2023/02/24 08:14:50;;;;;;;10.40;8.40;;;12.00;99.90;;;;;;5012878;28;20255;-73
2023/02/24 08:17:19;;;;;;;9.13;8.10;;;12.20;99.90;;;;;;5021309;28;20184;-72
2023/02/24 08:19:48;;;;;;;8.80;7.90;;;11.90;99.90;;;;;;5003573;28;20181;-72
2023/02/24 08:22:19;;;;;;;10.52;8.57;;;11.90;99.90;;;;;;4995760;28;20412;-73
2023/02/24 08:25:07;;;;;;;8.47;6.73;;;12.40;99.90;;;;;;5011204;28;20181;-72
2023/02/24 08:27:42;;;;;;;7.70;6.63;;;12.70;99.90;;;;;;5009281;28;20184;-72
2023/02/24 08:30:22;;;;;;;8.57;6.30;;;12.40;99.90;;;;;;5002879;28;20210;-72
2023/02/24 08:32:55;;;;;;;7.47;6.67;;;12.20;99.90;;;;;;5019802;28;20186;-72
2023/02/24 08:35:34;;;;;;;7.73;6.40;;;12.30;99.90;;;;;;5008993;28;20290;-72
2023/02/24 08:38:21;;;;;;;8.17;7.17;;;12.50;99.90;;;;;;5019848;28;20203;-73
2023/02/24 08:40:53;;;;;;;8.40;7.30;;;12.50;99.90;;;;;;4997908;28;20543;-73
2023/02/24 08:43:31;;;;;;;9.30;7.87;;;12.90;99.90;;;;;;5000970;28;20599;-73
2023/02/24 08:46:11;;;;;;;11.40;8.17;;;13.00;99.90;;;;;;5009744;28;20200;-73
2023/02/24 08:48:55;;;;;;;11.03;7.57;;;13.10;99.90;;;;;;5019432;28;20184;-73
2023/02/24 08:51:33;;;;;;;13.50;8.67;;;13.10;99.90;;;;;;5024938;28;20188;-73
2023/02/24 08:54:09;;;;;;;9.47;8.00;;;13.00;99.90;;;;;;5024089;28;20196;-73
2023/02/24 08:56:42;;;;;;;15.17;9.23;;;12.90;99.90;;;;;;5019062;28;20335;-72
2023/02/24 08:59:27;;;;;;;13.30;8.90;;;13.00;99.90;;;;;;5005945;28;20199;-72
2023/02/24 09:02:17;;;;;;;12.37;8.70;;;12.90;99.90;;;;;;5002437;28;20199;-72
2023/02/24 09:04:57;;;;;;;9.87;7.50;;;12.80;99.90;;;;;;5014540;28;20193;-72
2023/02/24 09:07:35;;;;;;;10.73;9.33;;;12.80;99.90;;;;;;5019940;28;20811;-73
2023/02/24 09:10:05;;;;;;;10.67;8.30;;;13.10;99.90;;;;;;5024695;28;20184;-72
2023/02/24 09:12:31;;;;;;;10.37;9.10;;;13.50;99.90;;;;;;5023516;28;20184;-72
2023/02/24 09:15:03;;;;;;;13.10;8.93;;;13.50;99.90;;;;;;5023340;28;20602;-73
2023/02/24 09:17:48;;;;;;;9.50;7.73;;;13.40;99.90;;;;;;5020463;28;20430;-72
2023/02/24 09:22:56;;;;;;;9.00;8.10;;;13.00;99.90;;;;;;4999304;28;20205;-73
2023/02/24 09:25:39;;;;;;;10.30;7.90;;;12.90;99.90;;;;;;5016629;28;20294;-73
2023/02/24 09:28:23;;;;;;;14.60;8.97;;;12.80;99.90;;;;;;5000953;28;20188;-72
2023/02/24 09:30:57;;;;;;;9.93;8.53;;;12.70;99.90;;;;;;5019164;28;20192;-72
2023/02/24 09:33:40;;;;;;;11.83;8.20;;;12.50;99.90;;;;;;5023805;28;20196;-73
2023/02/24 09:36:18;;;;;;;9.40;7.73;;;12.40;99.90;;;;;;4989134;28;20208;-73
2023/02/24 09:42:02;;;;;;;12.80;8.10;;;12.40;99.90;;;;;;5001178;28;20750;-72
2023/02/24 09:44:33;;;;;;;11.50;8.90;;;12.40;99.90;;;;;;5020862;28;20179;-72
2023/02/24 09:47:18;;;;;;;10.70;8.53;;;12.50;99.90;;;;;;5014918;28;20196;-72
2023/02/24 09:50:03;;;;;;;13.97;9.80;;;12.70;99.90;;;;;;4994660;28;20235;-72
2023/02/24 09:52:40;;;;;;;11.93;9.97;;;13.30;99.90;;;;;;5001799;28;20211;-72
2023/02/24 09:55:29;;;;;;;11.20;8.70;;;13.50;99.90;;;;;;5003682;28;20207;-72
2023/02/24 09:58:46;;;;;;;16.00;9.67;;;13.90;99.90;;;;;;5012934;28;20270;-73
2023/02/24 10:02:09;;;;;;;11.33;10.03;;;14.10;99.90;;;;;;4984577;28;20233;-73
2023/02/24 10:05:05;;;;;;;12.30;8.77;;;14.30;99.90;;;;;;4983783;28;20209;-73
2023/02/24 10:07:42;;;;;;;11.63;8.97;;;14.50;99.90;;;;;;5019517;28;20184;-72
2023/02/24 10:10:34;;;;;;;12.57;8.83;;;14.60;99.90;;;;;;4990715;28;20191;-73
2023/02/24 10:13:29;;;;;;;10.17;7.93;;;14.70;99.90;;;;;;5018214;28;20730;-72
2023/02/24 10:15:59;;;;;;;9.70;8.30;;;14.50;99.90;;;;;;5017896;28;20219;-72
2023/02/24 10:19:13;;;;;;;12.27;8.20;;;14.50;99.90;;;;;;5009856;28;20184;-73
2023/02/24 10:22:26;;;;;;;11.93;8.57;;;14.20;99.90;;;;;;5000738;28;20462;-73
2023/02/24 10:25:24;;;;;;;8.27;7.23;;;14.10;99.90;;;;;;4990412;28;20239;-73
2023/02/24 10:28:21;;;;;;;11.63;7.33;;;14.10;99.90;;;;;;5000093;28;20180;-72
2023/02/24 10:31:23;;;;;;;8.07;7.23;;;14.10;99.90;;;;;;4998769;28;20180;-73
2023/02/24 10:34:00;;;;;;;9.13;7.03;;;14.00;99.90;;;;;;5001448;28;20179;-73
2023/02/24 10:36:35;;;;;;;10.33;7.43;;;14.00;99.90;;;;;;5005557;28;20266;-73
2023/02/24 10:39:19;;;;;;;9.47;7.70;;;14.00;99.90;;;;;;5005531;28;20187;-72
2023/02/24 10:41:56;;;;;;;10.93;7.80;;;14.00;99.90;;;;;;4987032;28;20188;-73
2023/02/24 10:44:35;;;;;;;7.77;6.97;;;14.10;99.90;;;;;;5012492;28;20304;-73
2023/02/24 10:47:10;;;;;;;8.70;7.90;;;14.00;99.90;;;;;;5000297;28;20215;-73
2023/02/24 10:49:59;;;;;;;7.97;7.17;;;14.00;99.90;;;;;;5009592;28;20212;-73
2023/02/24 10:52:36;;;;;;;10.90;7.93;;;14.20;99.90;;;;;;5003629;28;20184;-73
2023/02/24 10:56:25;;;;;;;8.97;8.07;;;14.00;99.90;;;;;;5003023;28;20212;-73
2023/02/24 10:58:43;;;;;;;9.40;7.30;;;14.00;99.90;;;;;;5006902;28;20198;-73
2023/02/24 11:04:31;;;;;;;12.63;7.83;;;13.80;99.90;;;;;;5001688;28;20306;-73
2023/02/24 11:07:24;;;;;;;9.43;7.67;;;13.80;99.90;;;;;;5024149;28;20196;-73
2023/02/24 11:10:24;;;;;;;18.70;8.80;;;13.70;99.90;;;;;;5016236;28;20192;-73
2023/02/24 11:18:33;;;;;;;9.07;7.53;;;13.80;99.90;;;;;;5016760;28;20707;-73
2023/02/24 11:21:12;;;;;;;12.67;8.23;;;13.50;99.90;;;;;;5021838;28;20180;-73
2023/02/24 11:23:51;;;;;;;10.43;8.90;;;13.70;99.90;;;;;;5019142;28;20188;-73
2023/02/24 11:26:40;;;;;;;9.17;7.93;;;13.70;99.90;;;;;;5004606;28;20242;-74
2023/02/24 11:29:42;;;;;;;9.37;7.73;;;13.50;99.90;;;;;;5017486;28;20232;-72
2023/02/24 11:32:20;;;;;;;8.63;7.33;;;13.40;99.90;;;;;;4998158;28;20203;-73
2023/02/24 11:34:58;;;;;;;10.60;8.93;;;13.10;99.90;;;;;;5001098;28;20192;-73
2023/02/24 11:37:39;;;;;;;13.03;10.53;;;12.90;99.90;;;;;;5012522;28;20184;-72
2023/02/24 11:40:38;;;;;;;14.77;10.27;;;12.90;99.90;;;;;;5020031;28;20242;-73
2023/02/24 11:43:19;;;;;;;17.80;12.17;;;12.80;99.90;;;;;;5020079;28;20287;-73
2023/02/24 11:46:25;;;;;;;13.60;11.30;;;13.00;99.90;;;;;;5019225;28;20588;-73
2023/02/24 11:48:58;;;;;;;20.97;13.03;;;13.00;99.90;;;;;;4977044;28;20262;-73
2023/02/24 11:51:34;;;;;;;14.37;11.17;;;12.80;99.90;;;;;;5020034;28;20668;-73
2023/02/24 11:54:12;;;;;;;17.20;12.53;;;12.70;99.90;;;;;;5016864;28;20646;-73
2023/02/24 11:56:59;;;;;;;15.97;10.97;;;12.70;99.90;;;;;;5019488;28;20770;-73
2023/02/24 11:59:38;;;;;;;15.53;11.77;;;12.60;99.90;;;;;;5017103;28;20271;-73
2023/02/24 12:02:49;;;;;;;16.03;13.17;;;12.60;99.90;;;;;;5019633;28;20220;-73
2023/02/24 12:05:35;;;;;;;15.90;12.23;;;12.60;99.90;;;;;;4983751;28;20188;-73
2023/02/24 12:08:40;;;;;;;15.80;12.43;;;12.60;99.90;;;;;;5001831;28;20200;-73
2023/02/24 12:11:32;;;;;;;18.70;13.87;;;12.60;99.90;;;;;;4954320;28;20190;-72
2023/02/24 12:14:31;;;;;;;22.50;12.87;;;12.70;99.90;;;;;;5017152;28;20906;-72
2023/02/24 12:17:40;;;;;;;21.20;11.60;;;12.70;99.90;;;;;;4997638;28;20738;-72
2023/02/24 12:20:40;;;;;;;19.57;11.13;;;12.50;99.90;;;;;;4998850;28;20218;-72
2023/02/24 12:23:21;;;;;;;18.00;10.13;;;12.60;99.90;;;;;;5006203;28;20194;-73
2023/02/24 12:26:27;;;;;;;12.17;9.83;;;12.50;99.90;;;;;;5006642;28;20808;-72
2023/02/24 12:29:14;;;;;;;12.70;9.13;;;12.40;99.90;;;;;;5011453;28;21025;-72
2023/02/24 12:32:33;;;;;;;12.73;9.70;;;12.10;99.90;;;;;;5024640;28;20764;-73
2023/02/24 12:35:43;;;;;;;11.57;9.00;;;12.20;99.90;;;;;;5021882;28;20211;-72
2023/02/24 12:39:06;;;;;;;10.17;8.10;;;12.10;99.90;;;;;;5007424;28;20246;-73
2023/02/24 12:42:33;;;;;;;11.53;8.57;;;11.90;99.90;;;;;;5021784;28;20279;-72
2023/02/24 12:45:16;;;;;;;11.57;8.30;;;11.70;99.90;;;;;;5024311;28;20797;-72
2023/02/24 12:48:06;;;;;;;11.03;9.07;;;11.60;99.90;;;;;;5019470;28;20215;-72
2023/02/24 12:51:20;;;;;;;10.87;9.23;;;11.50;99.90;;;;;;5022892;28;20196;-72
2023/02/24 12:54:03;;;;;;;11.47;9.30;;;11.50;99.90;;;;;;5012327;28;20371;-72
2023/02/24 12:56:58;;;;;;;10.67;9.57;;;11.60;99.90;;;;;;5021607;28;20259;-72
2023/02/24 12:59:36;;;;;;;11.27;9.07;;;11.60;99.90;;;;;;5005970;28;20181;-73
2023/02/24 13:02:26;;;;;;;12.90;10.20;;;11.70;99.90;;;;;;5006572;28;20198;-72
2023/02/24 13:05:39;;;;;;;12.63;10.40;;;11.70;99.90;;;;;;5021371;28;20188;-72
2023/02/24 13:08:41;;;;;;;11.33;9.90;;;11.60;99.90;;;;;;4902769;28;55280;-72
2023/02/24 13:11:36;;;;;;;11.03;9.87;;;11.50;99.90;;;;;;4980561;28;20263;-72
2023/02/24 13:14:33;;;;;;;11.40;10.13;;;11.40;99.90;;;;;;4961411;28;20855;-72
2023/02/24 13:17:14;;;;;;;10.70;9.50;;;11.40;99.90;;;;;;4974977;28;20225;-72
2023/02/24 13:19:42;;;;;;;11.50;10.33;;;11.50;99.90;;;;;;4964888;28;20284;-72
2023/02/24 13:22:11;;;;;;;12.73;11.00;;;11.50;99.90;;;;;;4986658;28;20347;-72
2023/02/24 13:25:05;;;;;;;11.47;10.27;;;11.50;99.90;;;;;;4985674;28;20190;-72
2023/02/24 13:27:40;;;;;;;11.83;10.63;;;11.50;99.90;;;;;;4978167;28;20298;-72
2023/02/24 13:30:17;;;;;;;12.37;11.07;;;11.50;99.90;;;;;;4971546;28;20200;-72
2023/02/24 13:33:03;;;;;;;14.23;12.53;;;11.50;99.90;;;;;;4986010;28;20181;-72
2023/02/24 13:35:34;;;;;;;14.67;12.47;;;11.50;99.90;;;;;;4970660;28;20280;-73
2023/02/24 13:38:28;;;;;;;15.63;12.50;;;11.60;99.90;;;;;;4974808;28;20284;-72
2023/02/24 13:41:25;;;;;;;12.40;11.20;;;11.70;99.90;;;;;;4936576;28;20198;-72
2023/02/24 13:44:19;;;;;;;12.63;11.03;;;11.50;99.90;;;;;;4985437;28;20861;-72
2023/02/24 13:47:48;;;;;;;12.20;10.90;;;11.30;99.90;;;;;;4969887;28;20198;-72
2023/02/24 13:50:30;;;;;;;11.80;9.80;;;11.20;99.90;;;;;;4934786;28;20201;-72
2023/02/24 13:53:41;;;;;;;11.63;10.00;;;11.20;99.90;;;;;;4984640;28;20565;-73
2023/02/24 13:56:22;;;;;;;10.17;9.17;;;11.10;99.90;;;;;;4986225;28;20213;-72
2023/02/24 13:59:18;;;;;;;13.47;10.13;;;11.20;99.90;;;;;;4966993;28;20624;-72
2023/02/24 14:02:10;;;;;;;13.57;10.33;;;11.40;99.90;;;;;;4964739;28;20213;-72
2023/02/24 14:04:55;;;;;;;12.03;10.03;;;11.20;99.90;;;;;;4980327;28;20213;-72
2023/02/24 14:07:30;;;;;;;10.57;9.17;;;11.10;99.90;;;;;;4978327;28;20810;-72
2023/02/24 14:10:24;;;;;;;12.43;10.10;;;10.90;99.90;;;;;;4982923;28;20201;-72